Time;durP1;ratioP1;P1;durP2;ratioP2;P2;SDS_P1;SDS_P2;PMS_P1;PMS_P2;Temp;Humidity;BMP_temperature;BMP_pressure;BME280_temperature;BME280_humidity;BME280_pressure;Samples;Min_cycle;Max_cycle;Signal;HPM_P1;HPM_P2
2023/03/07 00:09:45;;;;;;;;;;;;;;;3.92;59.26;98761.50;1087503;54;19939;-79
2023/03/07 00:16:46;;;;;;;;;;;;;;;4.12;58.60;98752.66;1087338;54;19943;-79
2023/03/07 00:19:43;;;;;;;;;;;;;;;4.11;58.92;98751.00;1087472;47;19947;-79
2023/03/07 00:20:58;;;;;;;;;;;;;;;4.01;58.86;98752.78;1087713;54;19943;-78
2023/03/07 00:22:02;;;;;;;;;;;;;;;4.00;58.82;98756.38;1087877;54;19946;-78
2023/03/07 00:23:27;;;;;;;;;;;;;;;3.99;58.87;98749.41;1087784;54;20941;-80
2023/03/07 00:34:26;;;;;;;;;;;;;;;4.09;58.39;98745.00;1082813;54;19934;-79
2023/03/07 00:35:33;;;;;;;;;;;;;;;4.09;58.50;98745.00;1087920;54;20045;-78
2023/03/07 00:38:17;;;;;;;;;;;;;;;4.03;58.34;98748.19;1087613;54;20190;-78
2023/03/07 00:42:14;;;;;;;;;;;;;;;4.00;58.38;98744.00;1087227;54;19943;-78
2023/03/07 00:43:15;;;;;;;;;;;;;;;4.03;58.33;98745.53;1090894;39;20672;-80
2023/03/07 00:44:18;;;;;;;;;;;;;;;4.14;58.30;98752.53;1089566;46;19958;-78
2023/03/07 00:45:43;;;;;;;;;;;;;;;4.03;58.19;98749.00;1087230;54;19947;-80
2023/03/07 00:48:07;;;;;;;;;;;;;;;4.13;58.17;98738.47;1087174;54;19943;-78
2023/03/07 00:49:12;;;;;;;;;;;;;;;4.09;58.18;98739.69;1087306;54;19939;-78
2023/03/07 00:51:01;;;;;;;;;;;;;;;4.06;58.33;98743.47;1087008;54;19947;-79
2023/03/07 00:52:17;;;;;;;;;;;;;;;4.09;58.28;98738.88;1087187;54;19946;-78
2023/03/07 00:53:38;;;;;;;;;;;;;;;4.04;58.28;98736.63;1087149;54;19942;-78
2023/03/07 00:54:50;;;;;;;;;;;;;;;4.01;58.35;98734.25;1087258;39;21349;-78
2023/03/07 00:55:55;;;;;;;;;;;;;;;4.06;58.50;98735.53;1087005;54;19947;-78
2023/03/07 00:56:59;;;;;;;;;;;;;;;4.13;58.21;98738.47;1087198;54;20701;-77
2023/03/07 00:58:00;;;;;;;;;;;;;;;4.14;58.23;98740.16;1087101;54;19943;-77
2023/03/07 00:59:06;;;;;;;;;;;;;;;4.05;58.39;98733.84;1087224;47;19957;-80
2023/03/07 01:00:17;;;;;;;;;;;;;;;4.04;58.47;98736.63;1087152;47;20006;-79
2023/03/07 01:01:27;;;;;;;;;;;;;;;4.05;58.54;98743.59;1087036;47;20370;-78
2023/03/07 01:02:51;;;;;;;;;;;;;;;4.05;58.40;98738.31;1086904;54;19947;-80
2023/03/07 01:03:57;;;;;;;;;;;;;;;4.05;58.53;98743.59;1087000;54;19954;-81
2023/03/07 01:04:58;;;;;;;;;;;;;;;4.02;58.62;98739.41;1087085;54;19943;-78
2023/03/07 01:06:03;;;;;;;;;;;;;;;4.07;58.57;98741.63;1086799;54;19954;-78
2023/03/07 01:07:07;;;;;;;;;;;;;;;4.04;58.79;98740.09;1087124;54;19947;-79
2023/03/07 01:08:13;;;;;;;;;;;;;;;3.97;58.59;98754.03;1088057;39;20702;-78
2023/03/07 01:09:17;;;;;;;;;;;;;;;3.94;58.80;98741.06;1087096;54;19959;-80
2023/03/07 01:10:25;;;;;;;;;;;;;;;3.92;58.93;98743.00;1086948;54;19942;-79
2023/03/07 01:18:39;;;;;;;;;;;;;;;4.04;59.06;98724.25;1087409;54;19973;-78
2023/03/07 01:19:40;;;;;;;;;;;;;;;3.94;59.19;98723.38;1087497;54;19938;-78
2023/03/07 01:20:45;;;;;;;;;;;;;;;3.91;59.57;98723.66;1087420;46;19973;-78
2023/03/07 01:21:47;;;;;;;;;;;;;;;3.90;59.61;98730.75;1087397;54;19931;-78
2023/03/07 01:22:51;;;;;;;;;;;;;;;3.85;59.96;98730.31;1087407;54;20029;-78
2023/03/07 01:23:54;;;;;;;;;;;;;;;3.78;60.16;98733.63;1087497;54;19943;-78
2023/03/07 01:24:58;;;;;;;;;;;;;;;3.86;60.22;98732.00;1088595;47;19938;-78
2023/03/07 01:25:59;;;;;;;;;;;;;;;4.00;59.77;98728.16;1087390;54;19950;-78
2023/03/07 01:27:05;;;;;;;;;;;;;;;3.99;60.03;98720.31;1087449;54;19947;-78
2023/03/07 01:28:08;;;;;;;;;;;;;;;3.92;60.04;98724.47;1087556;54;19954;-79
2023/03/07 01:29:12;;;;;;;;;;;;;;;4.09;59.55;98721.19;1087456;54;19943;-79
2023/03/07 01:30:13;;;;;;;;;;;;;;;4.04;59.79;98723.41;1087595;54;19943;-79
2023/03/07 01:33:34;;;;;;;;;;;;;;;3.96;59.96;98715.31;1087246;54;19939;-79
2023/03/07 01:35:43;;;;;;;;;;;;;;;3.97;60.12;98701.13;1087173;54;19947;-77
2023/03/07 01:38:34;;;;;;;;;;;;;;;3.99;60.19;98699.16;1086673;54;20006;-78
2023/03/07 01:40:47;;;;;;;;;;;;;;;3.96;60.28;98699.47;1087301;54;19943;-78
2023/03/07 01:41:48;;;;;;;;;;;;;;;3.94;60.21;98704.03;1087393;54;19947;-79
2023/03/07 01:45:07;;;;;;;;;;;;;;;4.05;59.90;98693.34;1087666;54;19947;-79
2023/03/07 01:46:24;;;;;;;;;;;;;;;4.11;59.73;98694.63;1087436;54;19966;-79
2023/03/07 01:49:22;;;;;;;;;;;;;;;4.06;60.10;98692.38;1087032;54;19939;-78
2023/03/07 01:50:26;;;;;;;;;;;;;;;4.05;60.00;98685.41;1087914;46;19970;-79
2023/03/07 01:51:28;;;;;;;;;;;;;;;3.99;60.19;98689.44;1087196;54;19966;-79
2023/03/07 01:52:33;;;;;;;;;;;;;;;4.01;60.29;98689.28;1087145;54;20689;-78
2023/03/07 01:53:34;;;;;;;;;;;;;;;3.96;60.40;98688.88;1087063;54;19950;-78
2023/03/07 01:54:40;;;;;;;;;;;;;;;3.99;60.41;98684.16;1087067;54;19942;-78
2023/03/07 01:55:44;;;;;;;;;;;;;;;4.13;60.24;98690.00;1087973;39;20531;-78
2023/03/07 01:56:48;;;;;;;;;;;;;;;4.03;60.27;98690.00;1087143;54;19950;-78
2023/03/07 01:57:50;;;;;;;;;;;;;;;3.94;60.93;98682.88;1087114;54;19939;-77
2023/03/07 01:58:55;;;;;;;;;;;;;;;3.85;61.39;98690.66;1087073;54;19986;-78
2023/03/07 02:00:04;;;;;;;;;;;;;;;3.83;61.65;98694.38;1087052;54;19943;-78
2023/03/07 02:02:19;;;;;;;;;;;;;;;3.66;63.20;98686.13;1086726;54;19965;-78
2023/03/07 02:03:25;;;;;;;;;;;;;;;3.62;63.58;98683.88;1087482;54;19954;-78
2023/03/07 02:04:32;;;;;;;;;;;;;;;3.67;63.83;98682.53;1087499;54;19958;-78
2023/03/07 02:05:34;;;;;;;;;;;;;;;3.73;63.96;98679.34;1087468;54;19942;-78
2023/03/07 02:06:39;;;;;;;;;;;;;;;3.69;64.20;98682.38;1087522;54;19991;-78
2023/03/07 02:09:14;;;;;;;;;;;;;;;3.63;65.16;98672.34;1087103;54;19939;-80
2023/03/07 02:10:18;;;;;;;;;;;;;;;3.65;65.39;98681.00;1087579;54;20011;-78
2023/03/07 02:11:25;;;;;;;;;;;;;;;3.64;65.31;98677.50;1087472;54;19949;-78
2023/03/07 02:12:26;;;;;;;;;;;;;;;3.57;66.11;98674.56;1087551;54;19942;-77
2023/03/07 02:13:30;;;;;;;;;;;;;;;3.45;66.13;98675.63;1087432;54;19950;-78
2023/03/07 02:14:31;;;;;;;;;;;;;;;3.46;66.73;98677.31;1087558;54;19950;-78
2023/03/07 02:15:35;;;;;;;;;;;;;;;3.45;67.00;98670.34;1087477;54;19965;-78
2023/03/07 02:16:37;;;;;;;;;;;;;;;3.59;66.66;98667.31;1087569;54;20038;-77
2023/03/07 02:17:41;;;;;;;;;;;;;;;3.46;67.05;98665.88;1087477;54;19950;-78
2023/03/07 02:18:43;;;;;;;;;;;;;;;3.44;67.18;98666.03;1087932;39;20502;-77
2023/03/07 02:20:06;;;;;;;;;;;;;;;3.41;67.39;98669.78;1087453;54;19974;-82
2023/03/07 02:21:11;;;;;;;;;;;;;;;3.39;67.70;98665.59;1087385;54;19998;-79
2023/03/07 02:22:16;;;;;;;;;;;;;;;3.37;67.69;98662.25;1087465;54;19949;-78
2023/03/07 02:23:20;;;;;;;;;;;;;;;3.33;68.13;98658.19;1087936;39;20448;-77
2023/03/07 02:24:26;;;;;;;;;;;;;;;3.33;68.15;98663.47;1087534;54;19991;-77
2023/03/07 02:25:31;;;;;;;;;;;;;;;3.32;68.08;98653.88;1087430;54;19973;-78
2023/03/07 02:26:44;;;;;;;;;;;;;;;3.31;68.18;98658.34;1087464;54;19942;-78
2023/03/07 02:27:46;;;;;;;;;;;;;;;3.23;68.43;98653.69;1087435;54;19949;-78
2023/03/07 02:28:50;;;;;;;;;;;;;;;3.22;69.11;98653.84;1087491;54;19942;-78
2023/03/07 02:29:51;;;;;;;;;;;;;;;3.28;68.58;98658.59;1087520;54;19949;-77
2023/03/07 02:30:57;;;;;;;;;;;;;;;3.29;68.62;98654.97;1087469;54;19938;-77
2023/03/07 02:31:58;;;;;;;;;;;;;;;3.29;68.70;98649.69;1087502;54;20002;-77
2023/03/07 02:33:02;;;;;;;;;;;;;;;3.25;68.82;98643.84;1087437;54;19943;-79
2023/03/07 02:34:16;;;;;;;;;;;;;;;3.26;68.94;98652.59;1087420;54;19966;-78
2023/03/07 02:35:22;;;;;;;;;;;;;;;3.23;68.87;98653.69;1088052;46;19942;-77
2023/03/07 02:36:25;;;;;;;;;;;;;;;3.26;69.20;98644.66;1087467;54;19942;-78
2023/03/07 02:37:30;;;;;;;;;;;;;;;3.31;69.12;98647.75;1087519;54;19942;-77
2023/03/07 02:38:35;;;;;;;;;;;;;;;3.32;69.25;98643.31;1087631;54;19947;-78
2023/03/07 02:39:40;;;;;;;;;;;;;;;3.46;68.87;98647.38;1087380;54;19953;-78
2023/03/07 02:40:41;;;;;;;;;;;;;;;3.43;69.27;98646.72;1087445;54;19943;-78
2023/03/07 02:41:48;;;;;;;;;;;;;;;3.48;68.79;98640.16;1087471;54;19942;-78
2023/03/07 02:42:50;;;;;;;;;;;;;;;3.47;69.01;98639.34;1087431;54;19942;-78
2023/03/07 02:43:53;;;;;;;;;;;;;;;3.40;69.12;98646.16;1087391;54;19949;-78
2023/03/07 02:44:55;;;;;;;;;;;;;;;3.31;69.67;98641.66;1087433;54;19954;-78
2023/03/07 02:45:59;;;;;;;;;;;;;;;3.22;70.01;98646.75;1087171;54;19974;-79
2023/03/07 02:47:00;;;;;;;;;;;;;;;3.23;70.34;98640.50;1087706;54;19950;-78
2023/03/07 02:48:08;;;;;;;;;;;;;;;3.30;70.27;98643.44;1087502;54;19954;-78
2023/03/07 02:49:09;;;;;;;;;;;;;;;3.32;70.35;98643.31;1087425;54;19942;-77
2023/03/07 02:50:13;;;;;;;;;;;;;;;3.30;70.41;98646.09;1087331;54;19955;-78
2023/03/07 02:51:14;;;;;;;;;;;;;;;3.31;70.48;98645.13;1087395;54;19942;-78
2023/03/07 02:52:18;;;;;;;;;;;;;;;3.31;70.78;98646.94;1087283;54;19950;-78
2023/03/07 02:53:19;;;;;;;;;;;;;;;3.29;70.45;98641.78;1087389;54;19943;-77
2023/03/07 02:54:23;;;;;;;;;;;;;;;3.25;71.15;98649.13;1087423;54;20061;-78
2023/03/07 02:55:24;;;;;;;;;;;;;;;3.26;71.35;98640.25;1087387;54;20010;-77
2023/03/07 02:56:28;;;;;;;;;;;;;;;3.21;71.69;98642.41;1087386;54;19942;-77
2023/03/07 02:57:32;;;;;;;;;;;;;;;3.30;71.29;98640.81;1088021;46;19943;-78
2023/03/07 02:58:36;;;;;;;;;;;;;;;3.23;71.58;98644.94;1088136;31;20630;-81
2023/03/07 02:59:37;;;;;;;;;;;;;;;3.25;71.83;98643.84;1087437;54;19973;-77
2023/03/07 03:00:43;;;;;;;;;;;;;;;3.14;71.96;98635.19;1087215;54;19989;-78
2023/03/07 03:01:50;;;;;;;;;;;;;;;3.10;72.17;98646.00;1087406;54;19950;-79
2023/03/07 03:03:06;;;;;;;;;;;;;;;3.10;72.03;98639.91;1087033;46;19943;-78
2023/03/07 03:04:22;;;;;;;;;;;;;;;3.17;71.83;98646.31;1086864;54;19965;-79
2023/03/07 03:05:26;;;;;;;;;;;;;;;3.21;72.42;98631.03;1087763;39;20791;-80
2023/03/07 03:06:27;;;;;;;;;;;;;;;3.11;71.89;98633.66;1087007;54;19943;-78
2023/03/07 03:07:33;;;;;;;;;;;;;;;3.17;72.35;98633.09;1087055;54;20016;-78
2023/03/07 03:08:34;;;;;;;;;;;;;;;3.16;72.18;98634.06;1087430;54;19966;-79
2023/03/07 03:10:46;;;;;;;;;;;;;;;3.12;72.34;98638.78;1087324;54;19943;-78
2023/03/07 03:11:48;;;;;;;;;;;;;;;3.10;72.17;98646.00;1087360;54;19942;-78
2023/03/07 03:12:58;;;;;;;;;;;;;;;3.15;72.20;98642.97;1087329;54;19942;-78
2023/03/07 03:13:59;;;;;;;;;;;;;;;3.17;72.26;98643.66;1087376;54;19943;-78
2023/03/07 03:15:03;;;;;;;;;;;;;;;3.14;71.98;98643.09;1087344;54;19957;-79
2023/03/07 03:16:04;;;;;;;;;;;;;;;3.14;71.98;98638.66;1087827;39;20583;-78
2023/03/07 03:17:08;;;;;;;;;;;;;;;3.19;72.02;98639.09;1087421;54;19954;-77
2023/03/07 03:18:10;;;;;;;;;;;;;;;3.25;72.35;98637.75;1087348;54;19943;-78
2023/03/07 03:19:14;;;;;;;;;;;;;;;3.19;72.10;98641.75;1087435;54;19942;-78
2023/03/07 03:20:15;;;;;;;;;;;;;;;3.21;71.88;98636.31;1087439;54;19946;-78
2023/03/07 03:21:19;;;;;;;;;;;;;;;3.24;71.89;98631.59;1087376;54;19942;-78
2023/03/07 03:22:20;;;;;;;;;;;;;;;3.19;72.21;98631.19;1087163;54;19942;-78
2023/03/07 03:23:24;;;;;;;;;;;;;;;3.14;72.03;98625.44;1086360;54;19946;-78
2023/03/07 03:24:25;;;;;;;;;;;;;;;3.17;71.95;98627.81;1087056;46;19950;-78
2023/03/07 03:25:29;;;;;;;;;;;;;;;3.23;72.38;98618.53;1087094;39;20334;-79
2023/03/07 03:26:30;;;;;;;;;;;;;;;3.23;72.20;98623.81;1086588;54;19953;-78
2023/03/07 03:27:34;;;;;;;;;;;;;;;3.12;72.11;98624.72;1086364;54;19973;-80
2023/03/07 03:28:38;;;;;;;;;;;;;;;3.16;72.36;98622.69;1086663;54;19942;-78
2023/03/07 03:29:42;;;;;;;;;;;;;;;3.14;72.16;98622.78;1087105;54;20543;-77
2023/03/07 03:30:43;;;;;;;;;;;;;;;3.08;71.96;98631.25;1087041;54;19949;-79
2023/03/07 03:31:47;;;;;;;;;;;;;;;3.09;71.93;98627.66;1087123;54;19988;-79
2023/03/07 03:32:48;;;;;;;;;;;;;;;3.08;71.96;98625.97;1087351;54;19943;-78
2023/03/07 03:33:52;;;;;;;;;;;;;;;3.14;72.26;98628.09;1086968;54;19953;-79
2023/03/07 03:34:56;;;;;;;;;;;;;;;3.14;72.09;98622.78;1087135;54;19942;-79
2023/03/07 03:36:01;;;;;;;;;;;;;;;3.19;71.66;98625.91;1087164;54;20960;-79
2023/03/07 03:37:03;;;;;;;;;;;;;;;3.27;71.72;98625.22;1087191;54;19942;-79
2023/03/07 03:38:10;;;;;;;;;;;;;;;3.30;71.49;98624.13;1087268;54;19943;-79
2023/03/07 03:39:13;;;;;;;;;;;;;;;3.26;71.24;98624.38;1087119;54;19943;-79
2023/03/07 03:40:17;;;;;;;;;;;;;;;3.26;71.35;98632.31;1087140;54;20003;-78
2023/03/07 03:41:18;;;;;;;;;;;;;;;3.15;71.42;98621.84;1086667;54;19943;-79
2023/03/07 03:42:22;;;;;;;;;;;;;;;3.18;71.57;98624.22;1085322;54;19979;-79
2023/03/07 03:43:23;;;;;;;;;;;;;;;3.15;71.86;98627.13;1085133;54;19947;-79
2023/03/07 03:44:29;;;;;;;;;;;;;;;3.18;71.80;98621.56;1084677;54;20526;-78
2023/03/07 03:45:30;;;;;;;;;;;;;;;3.24;71.16;98621.03;1084573;54;19973;-78
2023/03/07 03:46:34;;;;;;;;;;;;;;;3.18;70.88;98621.56;1084469;54;19954;-79
2023/03/07 03:47:36;;;;;;;;;;;;;;;3.16;71.31;98625.31;1084835;54;19973;-79
2023/03/07 03:48:39;;;;;;;;;;;;;;;3.24;71.29;98620.22;1084403;54;19958;-79
2023/03/07 03:49:41;;;;;;;;;;;;;;;3.27;70.86;98618.13;1084375;54;21514;-79
2023/03/07 03:50:44;;;;;;;;;;;;;;;3.24;70.79;98622.84;1084225;54;19950;-78
2023/03/07 03:51:45;;;;;;;;;;;;;;;3.25;70.81;98619.25;1084829;39;20412;-79
2023/03/07 03:52:49;;;;;;;;;;;;;;;3.33;70.85;98618.56;1084879;54;20072;-79
2023/03/07 03:53:50;;;;;;;;;;;;;;;3.33;70.28;98616.78;1085415;39;20559;-78
2023/03/07 03:54:54;;;;;;;;;;;;;;;3.31;70.54;98620.53;1085140;54;20013;-79
2023/03/07 03:56:00;;;;;;;;;;;;;;;3.32;70.24;98614.25;1084887;54;19972;-79
2023/03/07 03:57:04;;;;;;;;;;;;;;;3.33;70.15;98614.13;1084232;54;19957;-79
2023/03/07 03:58:06;;;;;;;;;;;;;;;3.45;69.87;98612.22;1084992;54;19950;-79
2023/03/07 03:59:10;;;;;;;;;;;;;;;3.36;69.71;98613.84;1084835;54;19957;-79
2023/03/07 04:00:15;;;;;;;;;;;;;;;3.34;69.48;98620.25;1084992;54;19973;-78
2023/03/07 04:01:19;;;;;;;;;;;;;;;3.51;69.54;98606.38;1084956;54;19969;-80
2023/03/07 04:02:21;;;;;;;;;;;;;;;3.51;69.73;98608.22;1086568;31;20434;-79
2023/03/07 04:03:24;;;;;;;;;;;;;;;3.46;69.42;98613.91;1084954;54;20444;-79
2023/03/07 04:04:26;;;;;;;;;;;;;;;3.51;69.17;98608.22;1084964;54;19985;-78
2023/03/07 04:05:29;;;;;;;;;;;;;;;3.54;69.21;98607.94;1085056;54;19972;-78
2023/03/07 04:06:32;;;;;;;;;;;;;;;3.56;69.03;98604.19;1085076;54;19946;-79
2023/03/07 04:07:36;;;;;;;;;;;;;;;3.49;68.62;98607.50;1084530;54;20974;-79
2023/03/07 04:08:37;;;;;;;;;;;;;;;3.51;68.61;98603.75;1085325;39;20590;-79
2023/03/07 04:09:41;;;;;;;;;;;;;;;3.45;68.54;98611.41;1084879;54;19981;-78
2023/03/07 04:10:42;;;;;;;;;;;;;;;3.52;69.07;98608.06;1085010;39;20605;-79
2023/03/07 04:11:46;;;;;;;;;;;;;;;3.56;68.44;98609.47;1085417;54;19950;-78
2023/03/07 04:12:47;;;;;;;;;;;;;;;3.55;68.65;98607.81;1084548;54;19951;-79
2023/03/07 04:13:51;;;;;;;;;;;;;;;3.54;68.39;98600.84;1084731;54;20017;-78
2023/03/07 04:14:52;;;;;;;;;;;;;;;3.54;68.40;98595.56;1084843;54;19958;-78
2023/03/07 04:15:59;;;;;;;;;;;;;;;3.51;68.60;98595.00;1084537;54;19958;-78
2023/03/07 04:17:03;;;;;;;;;;;;;;;3.54;68.46;98597.38;1085118;54;19947;-82
2023/03/07 04:18:32;;;;;;;;;;;;;;;3.56;68.44;98598.91;1084164;54;19950;-79
2023/03/07 04:19:33;;;;;;;;;;;;;;;3.57;68.34;98590.00;1084893;54;19947;-79
2023/03/07 04:20:37;;;;;;;;;;;;;;;3.59;68.58;98592.50;1084924;54;19951;-77
2023/03/07 04:21:41;;;;;;;;;;;;;;;3.59;68.24;98582.75;1085302;39;20411;-78
2023/03/07 04:22:45;;;;;;;;;;;;;;;3.67;68.21;98589.19;1084982;54;19972;-78
2023/03/07 04:24:40;;;;;;;;;;;;;;;3.65;67.88;98585.84;1084856;54;19958;-78
2023/03/07 04:25:22;;;;;;;;;;;;;;;3.69;67.62;98581.94;1084519;54;20503;-79
2023/03/07 04:26:23;;;;;;;;;;;;;;;3.63;67.08;98585.13;1084767;54;20303;-79
2023/03/07 04:27:27;;;;;;;;;;;;;;;3.62;67.29;98576.38;1085338;39;20010;-78
2023/03/07 04:28:40;;;;;;;;;;;;;;;3.68;67.39;98585.59;1084496;54;19953;-79
2023/03/07 04:29:44;;;;;;;;;;;;;;;3.62;67.28;98579.03;1085074;54;19951;-79
2023/03/07 04:30:45;;;;;;;;;;;;;;;3.56;67.00;98577.75;1084729;54;19980;-79
2023/03/07 04:31:52;;;;;;;;;;;;;;;3.65;67.26;98580.56;1084745;54;19946;-80
2023/03/07 04:32:53;;;;;;;;;;;;;;;3.56;67.02;98583.06;1084611;54;19982;-79
2023/03/07 04:34:00;;;;;;;;;;;;;;;3.52;67.12;98580.81;1085028;54;20720;-80
2023/03/07 04:35:01;;;;;;;;;;;;;;;3.50;67.38;98578.28;1084795;54;19973;-78
2023/03/07 04:36:10;;;;;;;;;;;;;;;3.50;67.34;98574.81;1084747;54;19955;-79
2023/03/07 04:37:14;;;;;;;;;;;;;;;3.50;67.27;98577.47;1084883;54;19950;-79
2023/03/07 04:38:15;;;;;;;;;;;;;;;3.52;66.98;98568.41;1084787;54;19973;-80
2023/03/07 04:39:19;;;;;;;;;;;;;;;3.54;67.23;98571.78;1084638;54;19996;-78
2023/03/07 04:40:20;;;;;;;;;;;;;;;3.56;66.99;98567.19;1084823;54;19946;-79
2023/03/07 04:41:25;;;;;;;;;;;;;;;3.57;66.78;98570.66;1084510;54;19950;-78
2023/03/07 04:42:26;;;;;;;;;;;;;;;3.56;66.67;98568.97;1084889;54;19973;-79
2023/03/07 04:43:30;;;;;;;;;;;;;;;3.57;66.61;98568.88;1084600;54;19972;-78
2023/03/07 04:44:31;;;;;;;;;;;;;;;3.62;66.82;98573.75;1084600;54;20520;-79
2023/03/07 04:45:36;;;;;;;;;;;;;;;3.59;66.82;98566.91;1084587;54;19950;-79
2023/03/07 04:46:38;;;;;;;;;;;;;;;3.65;66.90;98562.06;1085175;39;20800;-78
2023/03/07 04:47:45;;;;;;;;;;;;;;;3.62;66.57;98559.69;1084768;54;20563;-78
2023/03/07 04:48:46;;;;;;;;;;;;;;;3.61;66.64;98565.94;1084692;54;19970;-78
2023/03/07 04:49:55;;;;;;;;;;;;;;;3.67;66.78;98560.13;1084939;39;20744;-81
2023/03/07 04:50:56;;;;;;;;;;;;;;;3.67;66.36;98558.31;1084674;54;19946;-79
2023/03/07 04:52:00;;;;;;;;;;;;;;;3.68;66.43;98559.97;1084459;54;20033;-78
2023/03/07 04:53:01;;;;;;;;;;;;;;;3.66;66.45;98563.72;1084770;54;19979;-78
2023/03/07 04:54:05;;;;;;;;;;;;;;;3.66;66.52;98556.63;1085514;39;20047;-79
2023/03/07 04:55:07;;;;;;;;;;;;;;;3.69;66.33;98547.56;1084758;54;20512;-79
2023/03/07 04:56:12;;;;;;;;;;;;;;;3.76;66.22;98551.38;1084763;54;20049;-78
2023/03/07 04:57:14;;;;;;;;;;;;;;;3.81;66.13;98553.59;1085587;54;19980;-78
2023/03/07 04:58:17;;;;;;;;;;;;;;;3.82;66.06;98548.16;1084619;54;19951;-77
2023/03/07 04:59:18;;;;;;;;;;;;;;;3.81;66.19;98551.78;1084609;54;19950;-78
2023/03/07 05:00:22;;;;;;;;;;;;;;;3.87;65.77;98547.75;1086399;39;20070;-78
2023/03/07 05:01:23;;;;;;;;;;;;;;;3.76;65.73;98551.38;1084823;54;19950;-79
2023/03/07 05:02:27;;;;;;;;;;;;;;;3.80;65.77;98551.91;1084577;54;19973;-78
2023/03/07 05:03:31;;;;;;;;;;;;;;;3.76;65.84;98548.72;1084759;54;19951;-79
2023/03/07 05:04:41;;;;;;;;;;;;;;;3.83;65.58;98547.19;1085882;39;20348;-78
2023/03/07 05:05:43;;;;;;;;;;;;;;;3.92;65.48;98552.63;1084789;54;19972;-78
2023/03/07 05:06:46;;;;;;;;;;;;;;;3.83;65.47;98548.97;1085029;54;19954;-78
2023/03/07 05:07:47;;;;;;;;;;;;;;;3.86;65.87;98552.22;1084898;54;19959;-77
2023/03/07 05:08:51;;;;;;;;;;;;;;;3.94;65.76;98543.56;1084931;54;19950;-78
2023/03/07 05:09:52;;;;;;;;;;;;;;;3.92;65.60;98549.97;1084602;54;19981;-79
2023/03/07 05:10:56;;;;;;;;;;;;;;;3.93;65.71;98547.19;1084014;54;19950;-79
2023/03/07 05:11:58;;;;;;;;;;;;;;;3.95;65.51;98547.06;1084716;54;19951;-78
2023/03/07 05:13:01;;;;;;;;;;;;;;;3.94;65.67;98548.03;1084855;54;19951;-77
2023/03/07 05:14:05;;;;;;;;;;;;;;;3.88;65.67;98544.13;1084689;54;19950;-78
2023/03/07 05:15:07;;;;;;;;;;;;;;;3.82;65.49;98542.06;1084774;54;19950;-78
2023/03/07 05:16:11;;;;;;;;;;;;;;;3.90;65.57;98536.91;1084835;54;19951;-78
2023/03/07 05:17:12;;;;;;;;;;;;;;;3.87;65.40;98538.00;1085292;54;19970;-79
2023/03/07 05:18:15;;;;;;;;;;;;;;;3.88;65.63;98537.03;1085755;39;20908;-78
2023/03/07 05:19:19;;;;;;;;;;;;;;;3.86;65.41;98536.34;1084999;54;19950;-77
2023/03/07 05:20:23;;;;;;;;;;;;;;;3.89;65.28;98536.06;1085253;54;19950;-78
2023/03/07 05:21:24;;;;;;;;;;;;;;;3.95;65.62;98533.84;1084247;54;19951;-78
2023/03/07 05:22:28;;;;;;;;;;;;;;;3.95;65.30;98537.31;1085117;54;19951;-79
2023/03/07 05:23:29;;;;;;;;;;;;;;;3.89;65.15;98530.75;1085084;54;19951;-78
2023/03/07 05:24:33;;;;;;;;;;;;;;;3.88;65.46;98530.91;1085261;46;19962;-79
2023/03/07 05:25:34;;;;;;;;;;;;;;;3.86;65.52;98523.13;1085933;39;20759;-78
2023/03/07 05:26:38;;;;;;;;;;;;;;;3.89;65.35;98525.47;1084851;54;19981;-78
2023/03/07 05:27:39;;;;;;;;;;;;;;;3.96;65.51;98524.94;1085288;54;19951;-78
2023/03/07 05:28:43;;;;;;;;;;;;;;;3.88;65.45;98526.44;1085173;54;19946;-78
2023/03/07 05:29:44;;;;;;;;;;;;;;;3.89;65.22;98535.22;1085444;54;19946;-78
2023/03/07 05:30:48;;;;;;;;;;;;;;;3.90;65.46;98527.16;1085078;54;20654;-78
2023/03/07 05:31:49;;;;;;;;;;;;;;;3.89;65.53;98529.94;1084686;54;19947;-79
2023/03/07 05:32:53;;;;;;;;;;;;;;;3.95;65.12;98523.25;1084880;54;19946;-78
2023/03/07 05:33:54;;;;;;;;;;;;;;;3.97;64.97;98521.31;1085241;46;19962;-78
2023/03/07 05:35:00;;;;;;;;;;;;;;;4.08;64.88;98528.25;1084965;54;20702;-78
2023/03/07 05:36:05;;;;;;;;;;;;;;;4.12;64.90;98524.34;1085094;54;20973;-77
2023/03/07 05:37:06;;;;;;;;;;;;;;;4.14;64.65;98525.91;1085216;54;20512;-77
2023/03/07 05:38:10;;;;;;;;;;;;;;;4.09;64.62;98514.88;1085350;54;19951;-78
2023/03/07 05:39:11;;;;;;;;;;;;;;;4.12;64.64;98516.41;1084984;54;19951;-78
2023/03/07 05:40:15;;;;;;;;;;;;;;;4.08;64.81;98518.50;1085084;54;19977;-78
2023/03/07 05:41:16;;;;;;;;;;;;;;;4.11;64.63;98512.94;1085057;54;19969;-79
2023/03/07 05:42:20;;;;;;;;;;;;;;;4.16;64.64;98518.63;1084847;54;19981;-78
2023/03/07 05:43:21;;;;;;;;;;;;;;;4.17;64.42;98520.31;1085299;54;19953;-78
2023/03/07 05:44:25;;;;;;;;;;;;;;;4.21;64.56;98516.41;1085291;47;19969;-78
2023/03/07 05:45:26;;;;;;;;;;;;;;;4.20;64.23;98514.75;1085202;54;19981;-78
2023/03/07 05:46:30;;;;;;;;;;;;;;;4.11;64.30;98514.75;1085501;54;19950;-78
2023/03/07 05:47:31;;;;;;;;;;;;;;;4.08;64.56;98507.94;1085135;54;19954;-79
2023/03/07 05:48:34;;;;;;;;;;;;;;;4.08;64.51;98513.22;1085405;54;19962;-78
2023/03/07 05:49:36;;;;;;;;;;;;;;;4.07;64.32;98511.53;1085238;54;19973;-78
2023/03/07 05:50:42;;;;;;;;;;;;;;;4.05;64.47;98510.88;1085334;54;19954;-77
2023/03/07 05:51:43;;;;;;;;;;;;;;;4.09;64.43;98512.25;1085096;54;19980;-78
2023/03/07 05:52:47;;;;;;;;;;;;;;;4.15;64.11;98518.78;1084724;54;19951;-79
2023/03/07 05:53:51;;;;;;;;;;;;;;;4.14;64.16;98507.38;1084969;54;19950;-78
2023/03/07 05:54:52;;;;;;;;;;;;;;;4.17;64.31;98511.53;1084664;54;19958;-78
2023/03/07 05:55:55;;;;;;;;;;;;;;;4.21;64.04;98511.13;1083490;54;20539;-79
2023/03/07 05:56:57;;;;;;;;;;;;;;;4.20;64.13;98516.56;1083728;54;20002;-79
2023/03/07 05:58:00;;;;;;;;;;;;;;;4.23;64.02;98510.97;1083608;54;20739;-79
2023/03/07 05:59:01;;;;;;;;;;;;;;;4.26;63.95;98504.56;1083616;54;19994;-79
2023/03/07 06:00:07;;;;;;;;;;;;;;;4.24;64.02;98509.19;1083611;54;19951;-79
2023/03/07 06:01:08;;;;;;;;;;;;;;;4.19;64.25;98509.59;1083264;54;19950;-79
2023/03/07 06:02:12;;;;;;;;;;;;;;;4.26;64.22;98504.56;1083696;54;19947;-79
2023/03/07 06:03:13;;;;;;;;;;;;;;;4.33;63.83;98508.31;1083426;54;19970;-80
2023/03/07 06:04:16;;;;;;;;;;;;;;;4.22;63.86;98504.84;1083817;54;19947;-79
2023/03/07 06:05:17;;;;;;;;;;;;;;;4.34;64.00;98500.22;1084354;31;20614;-78
2023/03/07 06:06:24;;;;;;;;;;;;;;;4.31;63.52;98503.16;1083353;54;19947;-79
2023/03/07 06:07:25;;;;;;;;;;;;;;;4.33;63.49;98500.38;1083461;54;19986;-80
2023/03/07 06:08:29;;;;;;;;;;;;;;;4.30;63.91;98498.84;1083608;54;19972;-79
2023/03/07 06:09:30;;;;;;;;;;;;;;;4.30;63.58;98501.47;1084080;54;19946;-79
2023/03/07 06:10:34;;;;;;;;;;;;;;;4.24;63.84;98501.25;1084119;54;19958;-79
2023/03/07 06:11:35;;;;;;;;;;;;;;;4.22;63.88;98496.91;1083884;54;20022;-80
2023/03/07 06:12:39;;;;;;;;;;;;;;;4.22;64.14;98501.38;1084161;54;19969;-79
2023/03/07 06:13:40;;;;;;;;;;;;;;;4.18;64.19;98492.88;1084380;54;19974;-79
2023/03/07 06:14:45;;;;;;;;;;;;;;;4.16;64.07;98492.19;1083806;54;19950;-79
2023/03/07 06:15:47;;;;;;;;;;;;;;;4.31;63.85;98491.75;1084108;54;19954;-79
2023/03/07 06:16:51;;;;;;;;;;;;;;;4.29;63.67;98488.41;1084246;54;19957;-79
2023/03/07 06:17:52;;;;;;;;;;;;;;;4.35;63.65;98491.31;1083864;54;19985;-80
2023/03/07 06:18:56;;;;;;;;;;;;;;;4.40;63.34;98496.19;1083850;54;19948;-79
2023/03/07 06:19:57;;;;;;;;;;;;;;;4.41;63.62;98486.41;1083959;54;19951;-79
2023/03/07 06:21:02;;;;;;;;;;;;;;;4.38;63.60;98490.19;1083633;54;19968;-79
2023/03/07 06:22:07;;;;;;;;;;;;;;;4.49;63.23;98486.53;1083797;54;19951;-78
2023/03/07 06:23:11;;;;;;;;;;;;;;;4.55;63.33;98487.78;1083842;54;20029;-79
2023/03/07 06:24:12;;;;;;;;;;;;;;;4.53;63.06;98488.75;1083709;54;19959;-79
2023/03/07 06:25:20;;;;;;;;;;;;;;;4.57;63.15;98488.47;1083661;54;19969;-78
2023/03/07 06:26:21;;;;;;;;;;;;;;;4.55;63.15;98490.41;1083853;54;19947;-79
2023/03/07 06:27:25;;;;;;;;;;;;;;;4.44;63.45;98486.97;1083638;54;19946;-79
2023/03/07 06:28:27;;;;;;;;;;;;;;;4.30;63.77;98490.06;1084744;39;20416;-79
2023/03/07 06:29:31;;;;;;;;;;;;;;;4.36;63.70;98489.50;1083538;54;19950;-79
2023/03/07 06:30:32;;;;;;;;;;;;;;;4.31;63.91;98486.47;1083427;54;19951;-79
2023/03/07 06:31:36;;;;;;;;;;;;;;;4.25;64.27;98487.84;1083635;54;19947;-79
2023/03/07 06:32:40;;;;;;;;;;;;;;;4.22;64.36;98483.69;1083372;54;19946;-79
2023/03/07 06:33:41;;;;;;;;;;;;;;;4.22;64.42;98478.41;1083492;54;19984;-79